sensor_id;sensor_type;location;lat;lon;timestamp;P1;durP1;ratioP1;P2;durP2;ratioP2
75234;SDS011;63817;51.228;-1.472;2023-07-29T00:01:42;15.25;;;5.20;;
75234;SDS011;63817;51.228;-1.472;2023-07-29T00:04:08;11.40;;;4.20;;
75234;SDS011;63817;51.228;-1.472;2023-07-29T00:06:34;12.73;;;4.20;;
75234;SDS011;63817;51.228;-1.472;2023-07-29T00:09:00;17.08;;;4.40;;
75234;SDS011;63817;51.228;-1.472;2023-07-29T00:11:26;7.75;;;4.10;;
75234;SDS011;63817;51.228;-1.472;2023-07-29T00:13:51;18.27;;;4.60;;
75234;SDS011;63817;51.228;-1.472;2023-07-29T00:16:17;7.07;;;4.43;;
75234;SDS011;63817;51.228;-1.472;2023-07-29T00:18:46;18.10;;;5.28;;
75234;SDS011;63817;51.228;-1.472;2023-07-29T00:21:11;13.20;;;4.20;;
75234;SDS011;63817;51.228;-1.472;2023-07-29T00:23:37;10.27;;;3.72;;
75234;SDS011;63817;51.228;-1.472;2023-07-29T00:26:02;11.60;;;4.22;;
75234;SDS011;63817;51.228;-1.472;2023-07-29T00:28:27;12.70;;;5.03;;
75234;SDS011;63817;51.228;-1.472;2023-07-29T00:30:53;16.95;;;4.88;;
75234;SDS011;63817;51.228;-1.472;2023-07-29T00:33:18;14.20;;;4.75;;
75234;SDS011;63817;51.228;-1.472;2023-07-29T00:35:45;18.63;;;4.18;;
75234;SDS011;63817;51.228;-1.472;2023-07-29T00:38:10;14.82;;;4.05;;
75234;SDS011;63817;51.228;-1.472;2023-07-29T00:40:36;9.27;;;4.35;;
75234;SDS011;63817;51.228;-1.472;2023-07-29T00:43:02;13.32;;;4.20;;
75234;SDS011;63817;51.228;-1.472;2023-07-29T00:45:27;13.60;;;4.57;;
75234;SDS011;63817;51.228;-1.472;2023-07-29T00:47:54;13.25;;;4.60;;
75234;SDS011;63817;51.228;-1.472;2023-07-29T00:50:19;18.90;;;4.35;;
75234;SDS011;63817;51.228;-1.472;2023-07-29T00:52:45;13.00;;;4.50;;
75234;SDS011;63817;51.228;-1.472;2023-07-29T00:55:10;10.57;;;4.03;;
75234;SDS011;63817;51.228;-1.472;2023-07-29T00:57:36;13.68;;;4.07;;
75234;SDS011;63817;51.228;-1.472;2023-07-29T01:00:02;18.48;;;5.03;;
75234;SDS011;63817;51.228;-1.472;2023-07-29T01:02:28;13.23;;;5.22;;
75234;SDS011;63817;51.228;-1.472;2023-07-29T01:04:55;10.40;;;4.50;;
75234;SDS011;63817;51.228;-1.472;2023-07-29T01:10:02;14.70;;;4.78;;
75234;SDS011;63817;51.228;-1.472;2023-07-29T01:15:14;15.10;;;4.95;;
75234;SDS011;63817;51.228;-1.472;2023-07-29T01:17:47;13.60;;;4.55;;
75234;SDS011;63817;51.228;-1.472;2023-07-29T01:20:15;14.25;;;4.70;;
75234;SDS011;63817;51.228;-1.472;2023-07-29T01:22:41;13.30;;;5.15;;
75234;SDS011;63817;51.228;-1.472;2023-07-29T01:25:07;14.95;;;4.60;;
75234;SDS011;63817;51.228;-1.472;2023-07-29T01:27:32;13.90;;;4.65;;
75234;SDS011;63817;51.228;-1.472;2023-07-29T01:29:58;15.73;;;4.63;;
75234;SDS011;63817;51.228;-1.472;2023-07-29T01:37:41;13.60;;;4.40;;
75234;SDS011;63817;51.228;-1.472;2023-07-29T01:40:07;10.90;;;4.20;;
75234;SDS011;63817;51.228;-1.472;2023-07-29T01:42:34;12.05;;;5.13;;
75234;SDS011;63817;51.228;-1.472;2023-07-29T01:44:59;13.32;;;4.97;;
75234;SDS011;63817;51.228;-1.472;2023-07-29T01:47:25;11.43;;;4.07;;
75234;SDS011;63817;51.228;-1.472;2023-07-29T01:49:50;15.63;;;4.70;;
75234;SDS011;63817;51.228;-1.472;2023-07-29T01:52:16;15.98;;;5.22;;
75234;SDS011;63817;51.228;-1.472;2023-07-29T01:54:41;19.27;;;5.35;;
75234;SDS011;63817;51.228;-1.472;2023-07-29T01:57:07;12.25;;;4.22;;
75234;SDS011;63817;51.228;-1.472;2023-07-29T01:59:32;17.20;;;4.57;;
75234;SDS011;63817;51.228;-1.472;2023-07-29T02:01:58;16.38;;;4.97;;
75234;SDS011;63817;51.228;-1.472;2023-07-29T02:04:23;14.10;;;5.18;;
75234;SDS011;63817;51.228;-1.472;2023-07-29T02:06:48;16.35;;;5.53;;
75234;SDS011;63817;51.228;-1.472;2023-07-29T02:09:14;15.68;;;4.82;;
75234;SDS011;63817;51.228;-1.472;2023-07-29T02:11:39;15.45;;;4.95;;
75234;SDS011;63817;51.228;-1.472;2023-07-29T02:14:04;15.70;;;4.72;;
75234;SDS011;63817;51.228;-1.472;2023-07-29T02:16:30;17.85;;;5.82;;
75234;SDS011;63817;51.228;-1.472;2023-07-29T02:18:57;17.55;;;5.63;;
75234;SDS011;63817;51.228;-1.472;2023-07-29T02:21:23;11.13;;;4.95;;
75234;SDS011;63817;51.228;-1.472;2023-07-29T02:23:48;16.88;;;5.35;;
75234;SDS011;63817;51.228;-1.472;2023-07-29T02:26:13;20.05;;;5.68;;
75234;SDS011;63817;51.228;-1.472;2023-07-29T02:28:39;17.40;;;4.90;;
75234;SDS011;63817;51.228;-1.472;2023-07-29T02:33:40;16.85;;;5.30;;
75234;SDS011;63817;51.228;-1.472;2023-07-29T02:36:06;13.95;;;5.40;;
75234;SDS011;63817;51.228;-1.472;2023-07-29T02:38:31;15.60;;;5.65;;
75234;SDS011;63817;51.228;-1.472;2023-07-29T02:40:57;14.95;;;5.40;;
75234;SDS011;63817;51.228;-1.472;2023-07-29T02:43:22;14.82;;;4.47;;
75234;SDS011;63817;51.228;-1.472;2023-07-29T02:45:47;17.05;;;5.47;;
75234;SDS011;63817;51.228;-1.472;2023-07-29T02:48:13;15.20;;;5.25;;
75234;SDS011;63817;51.228;-1.472;2023-07-29T02:50:38;19.55;;;4.97;;
75234;SDS011;63817;51.228;-1.472;2023-07-29T02:53:04;16.55;;;4.82;;
75234;SDS011;63817;51.228;-1.472;2023-07-29T02:55:29;22.27;;;5.60;;
75234;SDS011;63817;51.228;-1.472;2023-07-29T02:57:54;19.35;;;5.82;;
75234;SDS011;63817;51.228;-1.472;2023-07-29T03:00:20;15.93;;;5.18;;
75234;SDS011;63817;51.228;-1.472;2023-07-29T03:02:45;17.92;;;4.97;;
75234;SDS011;63817;51.228;-1.472;2023-07-29T03:05:11;18.75;;;5.60;;
75234;SDS011;63817;51.228;-1.472;2023-07-29T03:07:36;14.60;;;4.38;;
75234;SDS011;63817;51.228;-1.472;2023-07-29T03:10:01;17.45;;;4.97;;
75234;SDS011;63817;51.228;-1.472;2023-07-29T03:12:27;11.43;;;5.18;;
75234;SDS011;63817;51.228;-1.472;2023-07-29T03:14:52;13.38;;;5.45;;
75234;SDS011;63817;51.228;-1.472;2023-07-29T03:17:18;11.20;;;4.68;;
75234;SDS011;63817;51.228;-1.472;2023-07-29T03:19:43;16.58;;;5.10;;
75234;SDS011;63817;51.228;-1.472;2023-07-29T03:22:09;12.65;;;4.97;;
75234;SDS011;63817;51.228;-1.472;2023-07-29T03:24:34;18.20;;;5.80;;
75234;SDS011;63817;51.228;-1.472;2023-07-29T03:26:59;16.15;;;5.78;;
75234;SDS011;63817;51.228;-1.472;2023-07-29T03:29:25;12.65;;;4.65;;
75234;SDS011;63817;51.228;-1.472;2023-07-29T03:31:50;17.50;;;5.50;;
75234;SDS011;63817;51.228;-1.472;2023-07-29T03:34:15;18.92;;;5.93;;
75234;SDS011;63817;51.228;-1.472;2023-07-29T03:36:41;18.90;;;4.75;;
75234;SDS011;63817;51.228;-1.472;2023-07-29T03:39:07;22.35;;;5.45;;
75234;SDS011;63817;51.228;-1.472;2023-07-29T03:41:32;13.43;;;4.75;;
75234;SDS011;63817;51.228;-1.472;2023-07-29T03:43:58;11.30;;;4.97;;
75234;SDS011;63817;51.228;-1.472;2023-07-29T03:46:24;21.50;;;5.47;;
75234;SDS011;63817;51.228;-1.472;2023-07-29T03:48:50;11.15;;;4.95;;
75234;SDS011;63817;51.228;-1.472;2023-07-29T03:51:15;15.85;;;5.07;;
75234;SDS011;63817;51.228;-1.472;2023-07-29T03:53:41;17.02;;;5.55;;
75234;SDS011;63817;51.228;-1.472;2023-07-29T03:56:06;17.27;;;4.75;;
75234;SDS011;63817;51.228;-1.472;2023-07-29T03:58:32;15.63;;;4.80;;
75234;SDS011;63817;51.228;-1.472;2023-07-29T04:00:57;15.80;;;4.93;;
75234;SDS011;63817;51.228;-1.472;2023-07-29T04:03:23;13.25;;;5.05;;
75234;SDS011;63817;51.228;-1.472;2023-07-29T04:05:48;14.95;;;4.88;;
75234;SDS011;63817;51.228;-1.472;2023-07-29T04:08:14;15.13;;;5.43;;
75234;SDS011;63817;51.228;-1.472;2023-07-29T04:10:39;11.35;;;4.95;;
75234;SDS011;63817;51.228;-1.472;2023-07-29T04:13:04;11.48;;;5.07;;
75234;SDS011;63817;51.228;-1.472;2023-07-29T04:15:30;8.90;;;4.78;;
75234;SDS011;63817;51.228;-1.472;2023-07-29T04:17:55;14.27;;;5.10;;
75234;SDS011;63817;51.228;-1.472;2023-07-29T04:20:21;20.15;;;5.20;;
75234;SDS011;63817;51.228;-1.472;2023-07-29T04:22:46;14.63;;;5.18;;
75234;SDS011;63817;51.228;-1.472;2023-07-29T04:25:11;12.18;;;5.30;;
75234;SDS011;63817;51.228;-1.472;2023-07-29T04:27:38;13.90;;;4.47;;
75234;SDS011;63817;51.228;-1.472;2023-07-29T04:30:03;15.70;;;4.78;;
75234;SDS011;63817;51.228;-1.472;2023-07-29T04:32:29;10.45;;;4.20;;
75234;SDS011;63817;51.228;-1.472;2023-07-29T04:34:55;9.38;;;4.25;;
75234;SDS011;63817;51.228;-1.472;2023-07-29T04:37:20;15.48;;;4.50;;
75234;SDS011;63817;51.228;-1.472;2023-07-29T04:39:45;9.52;;;4.90;;
75234;SDS011;63817;51.228;-1.472;2023-07-29T04:42:11;20.90;;;4.90;;
75234;SDS011;63817;51.228;-1.472;2023-07-29T04:44:37;11.75;;;4.68;;
75234;SDS011;63817;51.228;-1.472;2023-07-29T04:47:02;11.68;;;4.75;;
75234;SDS011;63817;51.228;-1.472;2023-07-29T04:49:28;15.55;;;4.75;;
75234;SDS011;63817;51.228;-1.472;2023-07-29T04:51:53;12.15;;;4.20;;
75234;SDS011;63817;51.228;-1.472;2023-07-29T04:54:19;10.25;;;4.40;;
75234;SDS011;63817;51.228;-1.472;2023-07-29T04:56:46;9.02;;;4.88;;
75234;SDS011;63817;51.228;-1.472;2023-07-29T04:59:11;10.35;;;4.40;;
75234;SDS011;63817;51.228;-1.472;2023-07-29T05:01:38;14.40;;;5.22;;
75234;SDS011;63817;51.228;-1.472;2023-07-29T05:04:04;15.50;;;4.90;;
75234;SDS011;63817;51.228;-1.472;2023-07-29T05:06:29;16.55;;;5.30;;
75234;SDS011;63817;51.228;-1.472;2023-07-29T05:08:56;11.60;;;4.88;;
75234;SDS011;63817;51.228;-1.472;2023-07-29T05:11:22;11.90;;;4.97;;
75234;SDS011;63817;51.228;-1.472;2023-07-29T05:13:50;13.18;;;4.68;;
75234;SDS011;63817;51.228;-1.472;2023-07-29T05:16:15;11.85;;;4.70;;
75234;SDS011;63817;51.228;-1.472;2023-07-29T05:18:40;15.52;;;5.32;;
75234;SDS011;63817;51.228;-1.472;2023-07-29T05:21:06;8.68;;;5.00;;
75234;SDS011;63817;51.228;-1.472;2023-07-29T05:23:33;12.65;;;4.60;;
75234;SDS011;63817;51.228;-1.472;2023-07-29T05:25:58;13.25;;;4.85;;
75234;SDS011;63817;51.228;-1.472;2023-07-29T05:28:24;12.65;;;4.78;;
75234;SDS011;63817;51.228;-1.472;2023-07-29T05:30:49;16.50;;;4.93;;
75234;SDS011;63817;51.228;-1.472;2023-07-29T05:33:15;12.57;;;5.00;;
75234;SDS011;63817;51.228;-1.472;2023-07-29T05:35:40;15.05;;;4.82;;
75234;SDS011;63817;51.228;-1.472;2023-07-29T05:38:05;12.07;;;4.63;;
75234;SDS011;63817;51.228;-1.472;2023-07-29T05:40:33;16.30;;;5.47;;
75234;SDS011;63817;51.228;-1.472;2023-07-29T05:42:59;11.50;;;4.68;;
75234;SDS011;63817;51.228;-1.472;2023-07-29T05:45:24;12.25;;;5.20;;
75234;SDS011;63817;51.228;-1.472;2023-07-29T05:47:49;11.70;;;4.90;;
75234;SDS011;63817;51.228;-1.472;2023-07-29T05:50:15;15.45;;;5.63;;
75234;SDS011;63817;51.228;-1.472;2023-07-29T05:52:40;15.23;;;5.05;;
75234;SDS011;63817;51.228;-1.472;2023-07-29T05:55:06;11.02;;;4.15;;
75234;SDS011;63817;51.228;-1.472;2023-07-29T05:57:32;8.75;;;4.50;;
75234;SDS011;63817;51.228;-1.472;2023-07-29T05:59:57;14.75;;;5.13;;
75234;SDS011;63817;51.228;-1.472;2023-07-29T06:02:22;14.18;;;5.35;;
75234;SDS011;63817;51.228;-1.472;2023-07-29T06:04:48;12.68;;;5.00;;
75234;SDS011;63817;51.228;-1.472;2023-07-29T06:07:13;13.45;;;4.60;;
75234;SDS011;63817;51.228;-1.472;2023-07-29T06:09:39;8.88;;;4.40;;
75234;SDS011;63817;51.228;-1.472;2023-07-29T06:12:05;12.20;;;4.43;;
75234;SDS011;63817;51.228;-1.472;2023-07-29T06:14:31;7.97;;;3.88;;
75234;SDS011;63817;51.228;-1.472;2023-07-29T06:16:56;8.95;;;4.93;;
75234;SDS011;63817;51.228;-1.472;2023-07-29T06:19:21;9.13;;;3.95;;
75234;SDS011;63817;51.228;-1.472;2023-07-29T06:21:47;11.25;;;4.32;;
75234;SDS011;63817;51.228;-1.472;2023-07-29T06:24:13;10.95;;;3.80;;
75234;SDS011;63817;51.228;-1.472;2023-07-29T06:26:38;7.22;;;3.83;;
75234;SDS011;63817;51.228;-1.472;2023-07-29T06:29:04;8.18;;;4.18;;
75234;SDS011;63817;51.228;-1.472;2023-07-29T06:31:29;9.38;;;4.32;;
75234;SDS011;63817;51.228;-1.472;2023-07-29T06:33:55;10.05;;;3.50;;
75234;SDS011;63817;51.228;-1.472;2023-07-29T06:36:20;9.43;;;3.90;;
75234;SDS011;63817;51.228;-1.472;2023-07-29T06:38:46;6.63;;;3.40;;
75234;SDS011;63817;51.228;-1.472;2023-07-29T06:41:11;6.20;;;2.70;;
75234;SDS011;63817;51.228;-1.472;2023-07-29T06:43:37;5.28;;;2.85;;
75234;SDS011;63817;51.228;-1.472;2023-07-29T06:46:02;6.40;;;3.38;;
75234;SDS011;63817;51.228;-1.472;2023-07-29T06:48:28;5.57;;;3.28;;
75234;SDS011;63817;51.228;-1.472;2023-07-29T06:50:53;6.05;;;2.75;;
75234;SDS011;63817;51.228;-1.472;2023-07-29T06:53:20;6.78;;;2.70;;
75234;SDS011;63817;51.228;-1.472;2023-07-29T06:55:46;5.63;;;2.60;;
75234;SDS011;63817;51.228;-1.472;2023-07-29T06:58:11;7.55;;;2.70;;
75234;SDS011;63817;51.228;-1.472;2023-07-29T07:00:37;3.90;;;2.67;;
75234;SDS011;63817;51.228;-1.472;2023-07-29T07:03:02;3.85;;;2.70;;
75234;SDS011;63817;51.228;-1.472;2023-07-29T07:05:27;5.63;;;2.63;;
75234;SDS011;63817;51.228;-1.472;2023-07-29T07:07:53;7.95;;;2.88;;
75234;SDS011;63817;51.228;-1.472;2023-07-29T07:10:18;5.75;;;2.92;;
75234;SDS011;63817;51.228;-1.472;2023-07-29T07:12:44;3.60;;;2.50;;
75234;SDS011;63817;51.228;-1.472;2023-07-29T07:15:09;5.03;;;2.80;;
75234;SDS011;63817;51.228;-1.472;2023-07-29T07:17:35;8.20;;;2.95;;
75234;SDS011;63817;51.228;-1.472;2023-07-29T07:20:00;6.60;;;2.45;;
75234;SDS011;63817;51.228;-1.472;2023-07-29T07:22:26;10.32;;;2.90;;
75234;SDS011;63817;51.228;-1.472;2023-07-29T07:24:51;8.52;;;2.85;;
75234;SDS011;63817;51.228;-1.472;2023-07-29T07:27:17;6.70;;;3.20;;
75234;SDS011;63817;51.228;-1.472;2023-07-29T07:29:42;9.35;;;3.42;;
75234;SDS011;63817;51.228;-1.472;2023-07-29T07:32:07;7.75;;;3.08;;
75234;SDS011;63817;51.228;-1.472;2023-07-29T07:34:33;7.05;;;2.88;;
75234;SDS011;63817;51.228;-1.472;2023-07-29T07:36:59;7.00;;;2.60;;
75234;SDS011;63817;51.228;-1.472;2023-07-29T07:39:25;11.73;;;3.10;;
75234;SDS011;63817;51.228;-1.472;2023-07-29T07:41:51;10.52;;;3.17;;
75234;SDS011;63817;51.228;-1.472;2023-07-29T07:44:16;7.97;;;3.03;;
75234;SDS011;63817;51.228;-1.472;2023-07-29T07:46:43;9.18;;;3.13;;
75234;SDS011;63817;51.228;-1.472;2023-07-29T07:49:08;7.15;;;2.45;;
75234;SDS011;63817;51.228;-1.472;2023-07-29T07:51:34;7.47;;;2.92;;
75234;SDS011;63817;51.228;-1.472;2023-07-29T07:53:59;7.50;;;2.80;;
75234;SDS011;63817;51.228;-1.472;2023-07-29T07:56:24;11.88;;;2.55;;
75234;SDS011;63817;51.228;-1.472;2023-07-29T07:58:50;11.70;;;2.60;;
75234;SDS011;63817;51.228;-1.472;2023-07-29T08:01:15;7.75;;;2.40;;
75234;SDS011;63817;51.228;-1.472;2023-07-29T08:03:41;6.13;;;2.30;;
75234;SDS011;63817;51.228;-1.472;2023-07-29T08:06:06;10.07;;;3.20;;
75234;SDS011;63817;51.228;-1.472;2023-07-29T08:08:31;7.72;;;2.58;;
75234;SDS011;63817;51.228;-1.472;2023-07-29T08:10:57;8.65;;;2.78;;
75234;SDS011;63817;51.228;-1.472;2023-07-29T08:13:23;9.23;;;2.92;;
75234;SDS011;63817;51.228;-1.472;2023-07-29T08:15:49;13.98;;;3.75;;
75234;SDS011;63817;51.228;-1.472;2023-07-29T08:18:16;7.70;;;2.90;;
75234;SDS011;63817;51.228;-1.472;2023-07-29T08:20:51;11.40;;;3.45;;
75234;SDS011;63817;51.228;-1.472;2023-07-29T08:23:20;8.23;;;2.60;;
75234;SDS011;63817;51.228;-1.472;2023-07-29T08:25:50;10.85;;;2.72;;
75234;SDS011;63817;51.228;-1.472;2023-07-29T08:28:17;14.18;;;3.15;;
75234;SDS011;63817;51.228;-1.472;2023-07-29T08:30:42;11.02;;;3.20;;
75234;SDS011;63817;51.228;-1.472;2023-07-29T08:33:08;13.23;;;2.80;;
75234;SDS011;63817;51.228;-1.472;2023-07-29T08:35:33;10.18;;;2.88;;
75234;SDS011;63817;51.228;-1.472;2023-07-29T08:37:58;16.10;;;3.50;;
75234;SDS011;63817;51.228;-1.472;2023-07-29T08:40:25;11.82;;;2.72;;
75234;SDS011;63817;51.228;-1.472;2023-07-29T08:42:52;15.32;;;3.15;;
75234;SDS011;63817;51.228;-1.472;2023-07-29T08:45:19;10.70;;;2.92;;
75234;SDS011;63817;51.228;-1.472;2023-07-29T08:47:44;11.48;;;2.17;;
75234;SDS011;63817;51.228;-1.472;2023-07-29T08:50:10;7.43;;;2.40;;
75234;SDS011;63817;51.228;-1.472;2023-07-29T08:52:36;8.50;;;2.45;;
75234;SDS011;63817;51.228;-1.472;2023-07-29T08:55:01;8.18;;;2.63;;
75234;SDS011;63817;51.228;-1.472;2023-07-29T08:57:27;12.18;;;2.95;;
75234;SDS011;63817;51.228;-1.472;2023-07-29T08:59:53;8.15;;;2.67;;
75234;SDS011;63817;51.228;-1.472;2023-07-29T09:02:20;11.85;;;2.42;;
75234;SDS011;63817;51.228;-1.472;2023-07-29T09:04:45;11.95;;;2.92;;
75234;SDS011;63817;51.228;-1.472;2023-07-29T09:07:10;6.70;;;2.33;;
75234;SDS011;63817;51.228;-1.472;2023-07-29T09:09:36;7.47;;;2.63;;
75234;SDS011;63817;51.228;-1.472;2023-07-29T09:12:02;6.25;;;2.50;;
75234;SDS011;63817;51.228;-1.472;2023-07-29T09:14:28;5.55;;;1.85;;
75234;SDS011;63817;51.228;-1.472;2023-07-29T09:16:53;5.18;;;2.17;;
75234;SDS011;63817;51.228;-1.472;2023-07-29T09:19:19;5.07;;;1.98;;
75234;SDS011;63817;51.228;-1.472;2023-07-29T09:21:45;10.18;;;2.28;;
75234;SDS011;63817;51.228;-1.472;2023-07-29T09:24:14;11.15;;;2.55;;
75234;SDS011;63817;51.228;-1.472;2023-07-29T09:26:41;8.05;;;2.63;;
75234;SDS011;63817;51.228;-1.472;2023-07-29T09:29:14;9.70;;;2.13;;
75234;SDS011;63817;51.228;-1.472;2023-07-29T09:31:39;6.47;;;2.05;;
75234;SDS011;63817;51.228;-1.472;2023-07-29T09:34:05;5.30;;;1.98;;
75234;SDS011;63817;51.228;-1.472;2023-07-29T09:36:31;8.27;;;2.47;;
75234;SDS011;63817;51.228;-1.472;2023-07-29T09:38:57;5.75;;;1.85;;
75234;SDS011;63817;51.228;-1.472;2023-07-29T09:41:23;6.38;;;1.83;;
75234;SDS011;63817;51.228;-1.472;2023-07-29T09:43:54;7.50;;;2.17;;
75234;SDS011;63817;51.228;-1.472;2023-07-29T09:46:22;6.33;;;2.00;;
75234;SDS011;63817;51.228;-1.472;2023-07-29T09:48:48;12.32;;;2.72;;
75234;SDS011;63817;51.228;-1.472;2023-07-29T09:51:15;6.65;;;1.98;;
75234;SDS011;63817;51.228;-1.472;2023-07-29T09:53:42;9.77;;;2.40;;
75234;SDS011;63817;51.228;-1.472;2023-07-29T09:56:08;14.55;;;2.67;;
75234;SDS011;63817;51.228;-1.472;2023-07-29T09:58:33;8.43;;;2.28;;
75234;SDS011;63817;51.228;-1.472;2023-07-29T10:01:00;9.48;;;2.08;;
75234;SDS011;63817;51.228;-1.472;2023-07-29T10:03:26;9.15;;;2.30;;
75234;SDS011;63817;51.228;-1.472;2023-07-29T10:05:51;9.93;;;1.88;;
75234;SDS011;63817;51.228;-1.472;2023-07-29T10:08:17;7.15;;;2.35;;
75234;SDS011;63817;51.228;-1.472;2023-07-29T10:10:43;9.48;;;2.30;;
75234;SDS011;63817;51.228;-1.472;2023-07-29T10:13:09;7.63;;;1.90;;
75234;SDS011;63817;51.228;-1.472;2023-07-29T10:15:34;7.28;;;2.30;;
75234;SDS011;63817;51.228;-1.472;2023-07-29T10:18:01;5.03;;;2.05;;
75234;SDS011;63817;51.228;-1.472;2023-07-29T10:20:27;8.05;;;2.15;;
75234;SDS011;63817;51.228;-1.472;2023-07-29T10:22:53;7.07;;;1.75;;
75234;SDS011;63817;51.228;-1.472;2023-07-29T10:25:24;7.30;;;2.45;;
75234;SDS011;63817;51.228;-1.472;2023-07-29T10:27:55;7.07;;;2.10;;
75234;SDS011;63817;51.228;-1.472;2023-07-29T10:30:22;8.35;;;2.10;;
75234;SDS011;63817;51.228;-1.472;2023-07-29T10:32:49;9.88;;;2.47;;
75234;SDS011;63817;51.228;-1.472;2023-07-29T10:35:15;5.93;;;2.28;;
75234;SDS011;63817;51.228;-1.472;2023-07-29T10:37:41;7.25;;;2.05;;
75234;SDS011;63817;51.228;-1.472;2023-07-29T10:40:08;7.18;;;2.20;;
75234;SDS011;63817;51.228;-1.472;2023-07-29T10:42:35;7.85;;;2.40;;
75234;SDS011;63817;51.228;-1.472;2023-07-29T10:45:16;9.80;;;2.15;;
75234;SDS011;63817;51.228;-1.472;2023-07-29T10:47:43;9.50;;;2.95;;
75234;SDS011;63817;51.228;-1.472;2023-07-29T10:50:16;10.85;;;2.30;;
75234;SDS011;63817;51.228;-1.472;2023-07-29T10:52:43;15.35;;;2.63;;
75234;SDS011;63817;51.228;-1.472;2023-07-29T10:55:25;9.70;;;2.28;;
75234;SDS011;63817;51.228;-1.472;2023-07-29T10:58:05;7.22;;;1.85;;
75234;SDS011;63817;51.228;-1.472;2023-07-29T11:00:32;5.70;;;1.90;;
75234;SDS011;63817;51.228;-1.472;2023-07-29T11:03:02;8.98;;;1.83;;
75234;SDS011;63817;51.228;-1.472;2023-07-29T11:05:41;8.00;;;1.92;;
75234;SDS011;63817;51.228;-1.472;2023-07-29T11:08:23;9.95;;;2.53;;
75234;SDS011;63817;51.228;-1.472;2023-07-29T11:13:26;9.80;;;1.95;;
75234;SDS011;63817;51.228;-1.472;2023-07-29T11:15:53;8.02;;;1.58;;
75234;SDS011;63817;51.228;-1.472;2023-07-29T11:18:19;3.70;;;1.40;;
75234;SDS011;63817;51.228;-1.472;2023-07-29T11:20:45;4.10;;;1.40;;
75234;SDS011;63817;51.228;-1.472;2023-07-29T11:23:11;5.32;;;1.40;;
75234;SDS011;63817;51.228;-1.472;2023-07-29T11:25:36;6.22;;;1.73;;
75234;SDS011;63817;51.228;-1.472;2023-07-29T11:28:03;6.10;;;1.30;;
75234;SDS011;63817;51.228;-1.472;2023-07-29T11:30:28;11.68;;;1.75;;
75234;SDS011;63817;51.228;-1.472;2023-07-29T11:32:58;6.10;;;1.48;;
75234;SDS011;63817;51.228;-1.472;2023-07-29T11:35:24;7.57;;;1.60;;
75234;SDS011;63817;51.228;-1.472;2023-07-29T11:37:50;9.55;;;2.35;;
75234;SDS011;63817;51.228;-1.472;2023-07-29T11:40:20;7.97;;;2.65;;
75234;SDS011;63817;51.228;-1.472;2023-07-29T11:42:47;7.10;;;2.17;;
75234;SDS011;63817;51.228;-1.472;2023-07-29T11:45:14;5.35;;;1.60;;
75234;SDS011;63817;51.228;-1.472;2023-07-29T11:47:39;9.07;;;1.70;;
75234;SDS011;63817;51.228;-1.472;2023-07-29T11:50:06;5.20;;;1.60;;
75234;SDS011;63817;51.228;-1.472;2023-07-29T11:52:34;8.55;;;1.63;;
75234;SDS011;63817;51.228;-1.472;2023-07-29T11:55:01;6.82;;;1.80;;
75234;SDS011;63817;51.228;-1.472;2023-07-29T11:57:28;5.30;;;1.88;;
75234;SDS011;63817;51.228;-1.472;2023-07-29T11:59:54;10.13;;;1.88;;
75234;SDS011;63817;51.228;-1.472;2023-07-29T12:02:20;5.65;;;2.25;;
75234;SDS011;63817;51.228;-1.472;2023-07-29T12:04:46;5.65;;;1.73;;
75234;SDS011;63817;51.228;-1.472;2023-07-29T12:07:12;7.93;;;1.63;;
75234;SDS011;63817;51.228;-1.472;2023-07-29T12:09:38;5.40;;;1.58;;
75234;SDS011;63817;51.228;-1.472;2023-07-29T12:12:04;5.30;;;1.73;;
75234;SDS011;63817;51.228;-1.472;2023-07-29T12:14:31;7.43;;;1.40;;
75234;SDS011;63817;51.228;-1.472;2023-07-29T12:16:59;11.80;;;1.35;;
75234;SDS011;63817;51.228;-1.472;2023-07-29T12:19:38;3.17;;;1.35;;
75234;SDS011;63817;51.228;-1.472;2023-07-29T12:22:07;4.97;;;1.40;;
75234;SDS011;63817;51.228;-1.472;2023-07-29T12:24:35;5.50;;;1.35;;
75234;SDS011;63817;51.228;-1.472;2023-07-29T12:27:02;6.95;;;1.88;;
75234;SDS011;63817;51.228;-1.472;2023-07-29T12:29:27;6.57;;;1.67;;
75234;SDS011;63817;51.228;-1.472;2023-07-29T12:32:00;4.82;;;1.30;;
75234;SDS011;63817;51.228;-1.472;2023-07-29T12:34:29;4.78;;;1.50;;
75234;SDS011;63817;51.228;-1.472;2023-07-29T12:36:55;7.18;;;1.83;;
75234;SDS011;63817;51.228;-1.472;2023-07-29T12:39:23;3.95;;;1.38;;
75234;SDS011;63817;51.228;-1.472;2023-07-29T12:41:53;7.93;;;1.55;;
75234;SDS011;63817;51.228;-1.472;2023-07-29T12:44:20;7.72;;;1.67;;
75234;SDS011;63817;51.228;-1.472;2023-07-29T12:46:45;5.95;;;1.60;;
75234;SDS011;63817;51.228;-1.472;2023-07-29T12:49:11;5.00;;;1.50;;
75234;SDS011;63817;51.228;-1.472;2023-07-29T12:51:36;11.30;;;2.53;;
75234;SDS011;63817;51.228;-1.472;2023-07-29T12:54:05;6.95;;;1.90;;
75234;SDS011;63817;51.228;-1.472;2023-07-29T12:56:32;9.15;;;1.95;;
75234;SDS011;63817;51.228;-1.472;2023-07-29T12:58:58;6.50;;;1.88;;
75234;SDS011;63817;51.228;-1.472;2023-07-29T13:01:24;12.15;;;2.25;;
75234;SDS011;63817;51.228;-1.472;2023-07-29T13:03:51;10.73;;;1.95;;
75234;SDS011;63817;51.228;-1.472;2023-07-29T13:06:17;10.98;;;2.53;;
75234;SDS011;63817;51.228;-1.472;2023-07-29T13:08:42;11.27;;;2.40;;
75234;SDS011;63817;51.228;-1.472;2023-07-29T13:11:08;9.18;;;2.08;;
75234;SDS011;63817;51.228;-1.472;2023-07-29T13:13:34;10.30;;;2.60;;
75234;SDS011;63817;51.228;-1.472;2023-07-29T13:15:59;7.70;;;2.10;;
75234;SDS011;63817;51.228;-1.472;2023-07-29T13:18:25;15.68;;;1.95;;
75234;SDS011;63817;51.228;-1.472;2023-07-29T13:20:50;13.73;;;2.13;;
75234;SDS011;63817;51.228;-1.472;2023-07-29T13:23:16;10.10;;;2.58;;
75234;SDS011;63817;51.228;-1.472;2023-07-29T13:25:41;8.88;;;2.20;;
75234;SDS011;63817;51.228;-1.472;2023-07-29T13:28:08;8.13;;;1.80;;
75234;SDS011;63817;51.228;-1.472;2023-07-29T13:30:34;9.57;;;2.08;;
75234;SDS011;63817;51.228;-1.472;2023-07-29T13:33:00;8.48;;;1.80;;
75234;SDS011;63817;51.228;-1.472;2023-07-29T13:35:25;8.40;;;2.10;;
75234;SDS011;63817;51.228;-1.472;2023-07-29T13:37:51;5.50;;;2.08;;
75234;SDS011;63817;51.228;-1.472;2023-07-29T13:40:17;11.02;;;2.30;;
75234;SDS011;63817;51.228;-1.472;2023-07-29T13:42:42;8.32;;;2.28;;
75234;SDS011;63817;51.228;-1.472;2023-07-29T13:45:08;6.07;;;1.80;;
75234;SDS011;63817;51.228;-1.472;2023-07-29T13:47:33;7.80;;;1.83;;
75234;SDS011;63817;51.228;-1.472;2023-07-29T13:49:59;15.95;;;2.60;;
75234;SDS011;63817;51.228;-1.472;2023-07-29T13:52:25;10.98;;;1.65;;
75234;SDS011;63817;51.228;-1.472;2023-07-29T13:54:50;11.13;;;2.42;;
75234;SDS011;63817;51.228;-1.472;2023-07-29T13:57:16;10.88;;;2.05;;
75234;SDS011;63817;51.228;-1.472;2023-07-29T13:59:41;7.13;;;1.90;;
75234;SDS011;63817;51.228;-1.472;2023-07-29T14:02:07;9.40;;;2.08;;
75234;SDS011;63817;51.228;-1.472;2023-07-29T14:04:33;7.40;;;1.90;;
75234;SDS011;63817;51.228;-1.472;2023-07-29T14:06:58;8.50;;;2.08;;
75234;SDS011;63817;51.228;-1.472;2023-07-29T14:09:25;9.05;;;2.00;;
75234;SDS011;63817;51.228;-1.472;2023-07-29T14:11:50;11.30;;;2.15;;
75234;SDS011;63817;51.228;-1.472;2023-07-29T14:14:16;10.80;;;2.78;;
75234;SDS011;63817;51.228;-1.472;2023-07-29T14:16:41;10.50;;;2.22;;
75234;SDS011;63817;51.228;-1.472;2023-07-29T14:19:07;11.68;;;2.28;;
75234;SDS011;63817;51.228;-1.472;2023-07-29T14:21:32;15.05;;;2.60;;
75234;SDS011;63817;51.228;-1.472;2023-07-29T14:23:58;9.77;;;2.60;;
75234;SDS011;63817;51.228;-1.472;2023-07-29T14:26:23;12.32;;;3.92;;
75234;SDS011;63817;51.228;-1.472;2023-07-29T14:28:49;12.55;;;2.33;;
75234;SDS011;63817;51.228;-1.472;2023-07-29T14:31:15;13.38;;;2.45;;
75234;SDS011;63817;51.228;-1.472;2023-07-29T14:33:41;10.50;;;1.90;;
75234;SDS011;63817;51.228;-1.472;2023-07-29T14:36:07;9.90;;;2.28;;
75234;SDS011;63817;51.228;-1.472;2023-07-29T14:38:32;9.55;;;2.53;;